createdAt,value
2022-08-11T00:02:25.182Z,7.80
2022-08-11T00:05:03.580Z,6.90
2022-08-11T00:07:43.271Z,7.30
2022-08-11T00:10:22.073Z,7.70
2022-08-11T00:13:00.133Z,7.30
2022-08-11T00:15:45.593Z,7.00
2022-08-11T00:18:22.966Z,6.80
2022-08-11T00:21:02.985Z,7.40
2022-08-11T00:23:40.511Z,7.00
2022-08-11T00:26:15.291Z,7.20
2022-08-11T00:28:48.675Z,6.70
2022-08-11T00:31:30.040Z,6.90
2022-08-11T00:34:06.076Z,7.20
2022-08-11T00:36:51.288Z,6.70
2022-08-11T00:39:28.689Z,6.70
2022-08-11T00:45:36.368Z,6.50
2022-08-11T00:48:27.816Z,6.00
2022-08-11T00:51:24.837Z,6.00
2022-08-11T00:54:33.049Z,6.00
2022-08-11T00:57:39.151Z,6.20
2022-08-11T01:00:20.174Z,5.90
2022-08-11T01:03:19.191Z,5.40
2022-08-11T01:06:59.053Z,6.40
2022-08-11T01:10:05.072Z,5.70
2022-08-11T01:13:08.420Z,5.70
2022-08-11T01:16:44.015Z,5.80
2022-08-11T01:20:44.918Z,6.00
2022-08-11T01:23:54.399Z,5.50
2022-08-11T01:27:22.126Z,5.90
2022-08-11T01:30:30.713Z,5.50
2022-08-11T01:33:59.624Z,5.70
2022-08-11T01:37:07.771Z,5.80
2022-08-11T01:40:14.453Z,5.40
2022-08-11T01:43:55.626Z,5.50
2022-08-11T01:46:34.918Z,5.80
2022-08-11T01:50:06.392Z,5.30
2022-08-11T01:52:30.946Z,5.30
2022-08-11T01:55:24.154Z,5.60
2022-08-11T01:58:14.126Z,5.30
2022-08-11T02:01:03.811Z,5.10
2022-08-11T02:03:51.281Z,5.10
2022-08-11T02:06:54.426Z,5.20
2022-08-11T02:09:51.911Z,5.20
2022-08-11T02:12:52.530Z,5.10
2022-08-11T02:15:36.714Z,5.00
2022-08-11T02:18:22.986Z,4.90
2022-08-11T02:21:25.862Z,5.30
2022-08-11T02:24:09.519Z,5.30
2022-08-11T02:26:53.908Z,4.80
2022-08-11T02:29:39.164Z,4.40
2022-08-11T02:32:39.372Z,4.80
2022-08-11T02:35:26.693Z,5.00
2022-08-11T02:38:17.858Z,4.80
2022-08-11T02:41:02.267Z,4.80
2022-08-11T02:44:00.392Z,4.70
2022-08-11T02:46:52.585Z,6.10
2022-08-11T02:50:09.900Z,5.70
2022-08-11T02:52:59.158Z,5.40
2022-08-11T02:55:57.331Z,4.80
2022-08-11T02:59:19.843Z,5.30
2022-08-11T03:02:05.675Z,4.80
2022-08-11T03:04:56.896Z,5.30
2022-08-11T03:07:44.196Z,5.30
2022-08-11T03:10:26.889Z,5.70
2022-08-11T03:13:39.218Z,5.10
2022-08-11T03:16:48.456Z,5.20
2022-08-11T03:19:31.541Z,5.50
2022-08-11T03:25:03.195Z,5.50
2022-08-11T03:27:53.564Z,5.50
2022-08-11T03:30:40.966Z,6.10
2022-08-11T03:33:47.459Z,5.60
2022-08-11T03:37:17.949Z,6.00
2022-08-11T03:40:09.098Z,6.30
2022-08-11T03:42:58.996Z,5.50
2022-08-11T03:45:57.896Z,5.80
2022-08-11T03:48:42.961Z,6.80
2022-08-11T03:51:28.438Z,6.80
2022-08-11T03:54:51.432Z,6.60
2022-08-11T03:58:08.536Z,5.60
2022-08-11T04:01:17.307Z,6.10
2022-08-11T04:04:14.648Z,6.90
2022-08-11T04:07:53.510Z,6.70
2022-08-11T04:11:02.540Z,7.00
2022-08-11T04:14:30.060Z,7.80
2022-08-11T04:17:44.685Z,7.90
2022-08-11T04:20:50.627Z,8.00
2022-08-11T04:24:35.360Z,6.50
2022-08-11T04:27:37.085Z,7.20
2022-08-11T04:30:19.046Z,7.00
2022-08-11T04:33:37.667Z,7.10
2022-08-11T04:37:05.721Z,7.20
2022-08-11T04:40:00.813Z,6.80
2022-08-11T04:43:31.152Z,6.30
2022-08-11T04:46:29.845Z,7.60
2022-08-11T04:49:57.726Z,7.50
2022-08-11T04:53:37.452Z,6.80
2022-08-11T04:56:39.497Z,6.70
2022-08-11T05:00:20.697Z,7.40
2022-08-11T05:03:42.067Z,6.20
2022-08-11T05:07:01.776Z,7.10
2022-08-11T05:09:59.408Z,8.60
2022-08-11T05:12:47.618Z,7.70
2022-08-11T05:15:52.453Z,6.30
2022-08-11T05:18:47.634Z,6.70
2022-08-11T05:21:45.055Z,6.50
2022-08-11T05:24:45.171Z,7.10
2022-08-11T05:27:37.964Z,7.50
2022-08-11T05:30:34.357Z,7.20
2022-08-11T05:33:37.883Z,7.10
2022-08-11T05:36:25.883Z,6.90
2022-08-11T05:39:33.723Z,7.10
2022-08-11T05:42:30.653Z,7.30
2022-08-11T05:45:52.760Z,6.70
2022-08-11T05:48:51.545Z,7.10
2022-08-11T05:51:55.407Z,7.10
2022-08-11T05:54:49.621Z,6.50
2022-08-11T05:57:48.335Z,6.90
2022-08-11T06:00:24.715Z,7.10
2022-08-11T06:03:07.505Z,6.80
2022-08-11T06:05:44.330Z,6.50
2022-08-11T06:08:19.749Z,7.00
2022-08-11T06:10:53.294Z,7.20
2022-08-11T06:13:28.864Z,7.20
2022-08-11T06:16:07.218Z,8.00
2022-08-11T06:18:43.783Z,7.30
2022-08-11T06:21:19.643Z,6.50
2022-08-11T06:23:56.643Z,6.80
2022-08-11T06:26:30.543Z,6.00
2022-08-11T06:29:05.049Z,6.50
2022-08-11T06:31:39.497Z,6.40
2022-08-11T06:34:30.257Z,6.50
2022-08-11T06:37:26.252Z,6.80
2022-08-11T06:40:13.029Z,6.30
2022-08-11T06:42:56.336Z,6.60
2022-08-11T06:45:36.472Z,6.00
2022-08-11T06:48:19.824Z,5.80
2022-08-11T06:51:14.683Z,6.00
2022-08-11T06:54:03.859Z,5.90
2022-08-11T06:57:28.977Z,5.60
2022-08-11T07:00:28.986Z,5.10
2022-08-11T07:03:09.412Z,5.10
2022-08-11T07:05:53.083Z,5.30
2022-08-11T07:09:35.510Z,5.70
2022-08-11T07:12:56.409Z,5.80
2022-08-11T07:16:11.244Z,6.00
2022-08-11T07:18:59.385Z,4.60
2022-08-11T07:22:03.157Z,5.60
2022-08-11T07:25:03.586Z,5.10
2022-08-11T07:28:03.453Z,5.50
2022-08-11T07:30:43.500Z,5.10
2022-08-11T07:34:08.076Z,4.80
2022-08-11T07:36:28.254Z,4.80
2022-08-11T07:39:03.886Z,5.10
2022-08-11T07:41:39.137Z,5.10
2022-08-11T07:44:15.127Z,4.80
2022-08-11T07:47:11.108Z,4.80
2022-08-11T07:50:07.454Z,4.30
2022-08-11T07:52:41.666Z,5.50
2022-08-11T07:55:49.136Z,5.30
2022-08-11T07:58:45.075Z,4.60
2022-08-11T08:01:46.725Z,4.40
2022-08-11T08:04:45.406Z,6.20
2022-08-11T08:07:42.591Z,4.10
2022-08-11T08:10:36.280Z,5.30
2022-08-11T08:13:31.022Z,4.20
2022-08-11T08:16:22.362Z,4.70
2022-08-11T08:19:00.929Z,4.80
2022-08-11T08:21:36.954Z,4.60
2022-08-11T08:24:11.577Z,3.90
2022-08-11T08:27:03.250Z,4.20
2022-08-11T08:30:07.617Z,4.10
2022-08-11T08:32:44.871Z,3.80
2022-08-11T08:35:19.760Z,3.70
2022-08-11T08:37:56.308Z,4.40
2022-08-11T08:40:30.074Z,3.80
2022-08-11T08:43:10.963Z,3.10
2022-08-11T08:45:45.966Z,3.70
2022-08-11T08:48:24.980Z,3.70
2022-08-11T08:52:00.836Z,4.40
2022-08-11T08:54:37.155Z,4.60
2022-08-11T08:57:14.109Z,3.30
2022-08-11T08:59:51.519Z,3.80
2022-08-11T09:02:34.647Z,4.30
2022-08-11T09:05:10.999Z,4.10
2022-08-11T09:07:47.532Z,4.30
2022-08-11T09:10:23.792Z,4.40
2022-08-11T09:12:58.495Z,4.30
2022-08-11T09:15:32.932Z,4.40
2022-08-11T09:18:09.479Z,4.20
2022-08-11T09:20:43.523Z,3.90
2022-08-11T09:26:47.611Z,4.20
2022-08-11T09:29:21.869Z,4.20
2022-08-11T09:31:57.737Z,4.30
2022-08-11T09:34:36.715Z,3.80
2022-08-11T09:37:54.287Z,4.30
2022-08-11T09:40:33.709Z,3.40
2022-08-11T09:43:30.888Z,4.30
2022-08-11T09:46:05.283Z,3.90
2022-08-11T09:48:44.450Z,4.20
2022-08-11T09:51:19.816Z,4.20
2022-08-11T09:54:03.032Z,4.80
2022-08-11T09:56:55.478Z,4.40
2022-08-11T09:59:28.931Z,4.30
2022-08-11T10:02:05.770Z,4.10
2022-08-11T10:04:45.369Z,3.80
2022-08-11T10:07:22.062Z,3.70
2022-08-11T10:10:02.324Z,3.90
2022-08-11T10:12:42.584Z,3.40
2022-08-11T10:15:34.914Z,3.70
2022-08-11T10:18:29.508Z,3.50
2022-08-11T10:21:08.410Z,4.10
2022-08-11T10:24:05.550Z,4.00
2022-08-11T10:26:55.539Z,3.40
2022-08-11T10:29:52.353Z,3.30
2022-08-11T10:32:58.768Z,4.00
2022-08-11T10:35:36.384Z,3.60
2022-08-11T10:38:10.187Z,3.00
2022-08-11T10:41:10.688Z,3.40
2022-08-11T10:44:03.344Z,3.20
2022-08-11T10:46:56.916Z,3.50
2022-08-11T10:49:31.703Z,3.80
2022-08-11T10:52:23.809Z,3.80
2022-08-11T10:55:15.391Z,3.70
2022-08-11T10:58:07.863Z,3.50
2022-08-11T11:00:41.351Z,4.00
2022-08-11T11:03:22.884Z,3.30
2022-08-11T11:06:27.362Z,3.40
2022-08-11T11:09:06.092Z,4.00
2022-08-11T11:12:05.242Z,4.00
2022-08-11T11:15:01.763Z,4.10
2022-08-11T11:17:57.808Z,3.80
2022-08-11T11:20:45.001Z,3.50
2022-08-11T11:23:28.019Z,3.80
2022-08-11T11:26:31.916Z,3.30
2022-08-11T11:29:38.563Z,3.90
2022-08-11T11:32:38.652Z,3.70
2022-08-11T11:35:48.089Z,4.10
2022-08-11T11:38:22.678Z,3.90
2022-08-11T11:41:16.584Z,3.90
2022-08-11T11:43:50.773Z,3.80
2022-08-11T11:46:29.947Z,3.80
2022-08-11T11:49:15.882Z,4.00
2022-08-11T11:51:53.490Z,4.10
2022-08-11T11:54:31.100Z,4.00
2022-08-11T11:57:20.968Z,4.00
2022-08-11T12:00:12.654Z,4.00
2022-08-11T12:02:46.758Z,4.70
2022-08-11T12:05:21.411Z,4.10
2022-08-11T12:08:16.358Z,4.00
2022-08-11T12:11:15.094Z,4.30
2022-08-11T12:13:51.455Z,4.50
2022-08-11T12:16:34.897Z,4.80
2022-08-11T12:19:12.777Z,4.40
2022-08-11T12:22:18.917Z,4.40
2022-08-11T12:25:10.737Z,4.00
2022-08-11T12:27:44.774Z,4.00
2022-08-11T12:30:20.134Z,3.70
2022-08-11T12:32:54.030Z,3.40
2022-08-11T12:35:27.585Z,3.20
2022-08-11T12:38:10.703Z,3.60
2022-08-11T12:41:16.307Z,3.30
2022-08-11T12:44:09.088Z,4.00
2022-08-11T12:46:47.050Z,4.00
2022-08-11T12:49:45.475Z,3.50
2022-08-11T12:52:26.495Z,3.40
2022-08-11T12:55:12.996Z,3.40
2022-08-11T12:58:07.603Z,3.10
2022-08-11T13:00:58.530Z,3.30
2022-08-11T13:03:52.461Z,3.60
2022-08-11T13:06:30.752Z,3.50
2022-08-11T13:09:05.003Z,3.80
2022-08-11T13:11:57.662Z,2.80
2022-08-11T13:14:33.344Z,3.00
2022-08-11T13:17:44.102Z,2.60
2022-08-11T13:20:21.269Z,2.60
2022-08-11T13:22:58.677Z,2.70
2022-08-11T13:25:35.175Z,2.40
2022-08-11T13:28:10.184Z,2.30
2022-08-11T13:31:02.063Z,2.40
2022-08-11T13:33:37.408Z,2.50
2022-08-11T13:36:13.433Z,2.20
2022-08-11T13:38:50.033Z,2.20
2022-08-11T13:41:39.386Z,2.20
2022-08-11T13:44:21.617Z,2.10
2022-08-11T13:47:01.573Z,2.10
2022-08-11T13:49:40.341Z,1.70
2022-08-11T13:52:17.616Z,1.90
2022-08-11T13:54:53.251Z,1.90
2022-08-11T13:58:07.684Z,2.00
2022-08-11T14:00:26.933Z,2.00
2022-08-11T14:03:02.705Z,1.80
2022-08-11T14:05:46.769Z,1.90
2022-08-11T14:08:33.496Z,1.80
2022-08-11T14:12:21.108Z,1.90
2022-08-11T14:14:28.642Z,2.00
2022-08-11T14:17:07.556Z,2.10
2022-08-11T14:19:45.601Z,1.70
2022-08-11T14:22:22.071Z,2.00
2022-08-11T14:24:56.743Z,1.90
2022-08-11T14:28:32.557Z,1.80
2022-08-11T14:30:45.884Z,1.90
2022-08-11T14:33:20.590Z,1.80
2022-08-11T14:35:54.821Z,1.80
2022-08-11T14:38:28.948Z,1.80
2022-08-11T14:41:20.212Z,2.10
2022-08-11T14:44:14.721Z,1.90
2022-08-11T14:47:23.418Z,1.80
2022-08-11T14:50:09.953Z,1.70
2022-08-11T14:52:55.163Z,1.90
2022-08-11T14:55:48.097Z,2.10
2022-08-11T14:58:25.744Z,2.30
2022-08-11T15:01:01.747Z,1.90
2022-08-11T15:03:36.702Z,1.80
2022-08-11T15:06:11.203Z,1.80
2022-08-11T15:08:57.058Z,1.90
2022-08-11T15:11:51.883Z,1.90
2022-08-11T15:14:41.420Z,2.10
2022-08-11T15:17:16.772Z,1.80
2022-08-11T15:20:12.074Z,1.70
2022-08-11T15:23:02.903Z,1.70
2022-08-11T15:25:38.367Z,1.90
2022-08-11T15:28:32.349Z,1.60
2022-08-11T15:31:37.521Z,1.90
2022-08-11T15:34:32.560Z,1.90
2022-08-11T15:37:30.991Z,2.00
2022-08-11T15:40:43.454Z,2.10
2022-08-11T15:43:45.945Z,2.20
2022-08-11T15:49:03.702Z,2.00
2022-08-11T15:51:44.205Z,2.40
2022-08-11T15:54:22.185Z,1.70
2022-08-11T15:57:01.813Z,1.90
2022-08-11T15:59:58.020Z,1.70
2022-08-11T16:02:49.769Z,2.40
2022-08-11T16:05:46.368Z,1.80
2022-08-11T16:08:29.517Z,1.80
2022-08-11T16:11:09.152Z,2.00
2022-08-11T16:14:01.622Z,1.90
2022-08-11T16:16:39.173Z,1.80
2022-08-11T16:19:15.281Z,2.00
2022-08-11T16:21:51.796Z,1.70
2022-08-11T16:27:06.118Z,1.90
2022-08-11T16:27:24.431Z,1.90
2022-08-11T16:30:00.198Z,1.60
2022-08-11T16:32:38.018Z,1.90
2022-08-11T16:35:34.545Z,1.80
2022-08-11T16:38:27.718Z,2.40
2022-08-11T16:41:10.936Z,1.80
2022-08-11T16:44:06.233Z,1.90
2022-08-11T16:46:54.935Z,2.20
2022-08-11T16:49:34.949Z,2.60
2022-08-11T16:52:12.249Z,2.00
2022-08-11T16:54:47.746Z,1.90
2022-08-11T16:57:57.691Z,1.90
2022-08-11T17:00:33.318Z,1.90
2022-08-11T17:03:25.621Z,1.80
2022-08-11T17:06:17.666Z,2.10
2022-08-11T17:09:12.200Z,2.30
2022-08-11T17:12:11.702Z,2.10
2022-08-11T17:14:53.094Z,2.60
2022-08-11T17:17:34.969Z,2.40
2022-08-11T17:20:42.822Z,2.20
2022-08-11T17:23:28.989Z,2.50
2022-08-11T17:26:04.713Z,2.40
2022-08-11T17:28:40.866Z,2.30
2022-08-11T17:31:34.651Z,2.10
2022-08-11T17:34:27.547Z,2.00
2022-08-11T17:37:02.196Z,2.50
2022-08-11T17:39:36.978Z,2.20
2022-08-11T17:42:29.414Z,2.30
2022-08-11T17:45:22.815Z,2.40
2022-08-11T17:48:14.927Z,2.80
2022-08-11T17:50:50.293Z,2.50
2022-08-11T17:54:15.267Z,2.40
2022-08-11T17:57:20.419Z,2.20
2022-08-11T17:59:57.740Z,3.00
2022-08-11T18:02:54.290Z,2.60
2022-08-11T18:05:33.809Z,2.60
2022-08-11T18:08:31.099Z,2.60
2022-08-11T18:12:10.235Z,2.00
2022-08-11T18:17:26.582Z,2.40
2022-08-11T18:20:17.335Z,2.60
2022-08-11T18:23:11.458Z,2.50
2022-08-11T18:26:07.865Z,2.40
2022-08-11T18:29:09.253Z,2.30
2022-08-11T18:32:08.589Z,2.20
2022-08-11T18:35:03.724Z,2.80
2022-08-11T18:38:01.934Z,2.60
2022-08-11T18:40:55.135Z,2.30
2022-08-11T18:43:50.684Z,2.50
2022-08-11T18:46:43.626Z,2.70
2022-08-11T18:50:01.551Z,2.30
2022-08-11T18:52:57.508Z,2.30
2022-08-11T18:55:49.991Z,2.80
2022-08-11T18:58:49.510Z,2.70
2022-08-11T19:01:45.982Z,2.60
2022-08-11T19:04:38.527Z,3.20
2022-08-11T19:07:32.894Z,2.50
2022-08-11T19:10:25.589Z,2.30
2022-08-11T19:13:18.897Z,2.70
2022-08-11T19:16:12.158Z,2.50
2022-08-11T19:19:05.930Z,2.40
2022-08-11T19:21:58.911Z,2.90
2022-08-11T19:27:42.329Z,3.00
2022-08-11T19:33:57.345Z,2.60
2022-08-11T19:36:37.258Z,2.80
2022-08-11T19:39:29.444Z,4.10
2022-08-11T19:42:22.215Z,3.60
2022-08-11T19:45:13.463Z,3.70
2022-08-11T19:48:30.128Z,3.70
2022-08-11T19:51:17.765Z,3.80
2022-08-11T19:57:00.370Z,3.20
2022-08-11T19:59:52.586Z,2.90
2022-08-11T20:02:43.808Z,3.40
2022-08-11T20:05:34.694Z,3.10
2022-08-11T20:08:27.198Z,2.80
2022-08-11T20:11:19.173Z,2.70
2022-08-11T20:14:14.001Z,2.90
2022-08-11T20:17:06.746Z,2.60
2022-08-11T20:22:57.130Z,2.60
2022-08-11T20:25:51.318Z,3.00
2022-08-11T20:28:43.334Z,3.00
2022-08-11T20:31:35.091Z,3.60
2022-08-11T20:34:28.324Z,3.60
2022-08-11T20:37:21.571Z,3.20
2022-08-11T20:43:04.207Z,3.90
2022-08-11T20:45:57.350Z,4.60
2022-08-11T20:48:51.564Z,5.50
2022-08-11T20:51:43.520Z,4.60
2022-08-11T20:54:38.241Z,4.50
2022-08-11T20:57:59.134Z,4.40
2022-08-11T21:00:48.571Z,3.70
2022-08-11T21:03:44.898Z,3.70
2022-08-11T21:06:47.762Z,3.30
2022-08-11T21:10:01.069Z,3.60
2022-08-11T21:16:01.595Z,4.20
2022-08-11T21:18:55.692Z,4.30
2022-08-11T21:21:49.842Z,4.40
2022-08-11T21:24:48.575Z,4.40
2022-08-11T21:27:42.454Z,4.40
2022-08-11T21:30:34.346Z,3.80
2022-08-11T21:33:28.122Z,3.80
2022-08-11T21:36:20.051Z,3.70
2022-08-11T21:39:12.544Z,3.40
2022-08-11T21:42:04.446Z,3.20
2022-08-11T21:44:56.463Z,3.60
2022-08-11T21:47:49.489Z,3.50
2022-08-11T21:50:52.169Z,3.70
2022-08-11T21:53:44.935Z,4.40
2022-08-11T21:56:37.271Z,3.60
2022-08-11T21:59:29.269Z,3.70
2022-08-11T22:02:20.683Z,3.70
2022-08-11T22:05:16.197Z,4.40
2022-08-11T22:08:07.238Z,3.70
2022-08-11T22:10:58.338Z,4.70
2022-08-11T22:14:06.406Z,3.90
2022-08-11T22:16:58.692Z,3.80
2022-08-11T22:19:50.604Z,3.90
2022-08-11T22:22:49.100Z,4.30
2022-08-11T22:25:54.326Z,3.90
2022-08-11T22:28:50.819Z,4.30
2022-08-11T22:31:42.828Z,4.00
2022-08-11T22:34:34.699Z,3.80
2022-08-11T22:37:45.269Z,3.80
2022-08-11T22:40:36.153Z,4.00
2022-08-11T22:43:27.465Z,3.60
2022-08-11T22:46:18.416Z,4.60
2022-08-11T22:49:09.886Z,3.90
2022-08-11T22:52:03.241Z,4.10
2022-08-11T22:54:55.727Z,4.30
2022-08-11T22:58:00.456Z,4.50
2022-08-11T23:00:52.168Z,4.10
2022-08-11T23:03:43.858Z,4.40
2022-08-11T23:06:36.044Z,4.60
2022-08-11T23:09:29.749Z,4.20
2022-08-11T23:12:21.207Z,4.00
2022-08-11T23:15:12.985Z,3.80
2022-08-11T23:18:04.698Z,3.90
2022-08-11T23:20:58.815Z,3.80
2022-08-11T23:23:51.423Z,3.70
2022-08-11T23:26:46.596Z,4.00
2022-08-11T23:29:38.293Z,4.00
2022-08-11T23:32:29.148Z,3.70
2022-08-11T23:35:40.228Z,4.50
2022-08-11T23:38:33.595Z,3.50
2022-08-11T23:41:25.095Z,4.10
2022-08-11T23:44:16.866Z,4.40
2022-08-11T23:47:10.675Z,4.10
2022-08-11T23:50:03.157Z,4.40
2022-08-11T23:52:54.791Z,4.20
2022-08-11T23:55:45.715Z,4.30
2022-08-11T23:58:36.646Z,3.90
